sensor_id;sensor_type;location;lat;lon;timestamp;pressure;altitude;pressure_sealevel;temperature;humidity
62600;BME280;48671;48.922;2.346;2022-09-09T00:04:10;100769.78;;;19.15;57.37
62600;BME280;48671;48.922;2.346;2022-09-09T00:09:40;100779.72;;;19.11;57.75
62600;BME280;48671;48.922;2.346;2022-09-09T00:12:22;100778.03;;;19.10;57.97
62600;BME280;48671;48.922;2.346;2022-09-09T00:15:12;100770.19;;;18.98;58.28
62600;BME280;48671;48.922;2.346;2022-09-09T00:18:11;100759.34;;;18.89;57.84
62600;BME280;48671;48.922;2.346;2022-09-09T00:21:13;100764.16;;;18.95;58.36
62600;BME280;48671;48.922;2.346;2022-09-09T00:23:37;100752.00;;;18.82;58.94
62600;BME280;48671;48.922;2.346;2022-09-09T00:26:11;100751.25;;;18.80;58.13
62600;BME280;48671;48.922;2.346;2022-09-09T00:28:50;100767.38;;;18.88;58.55
62600;BME280;48671;48.922;2.346;2022-09-09T00:31:23;100777.78;;;18.89;58.03
62600;BME280;48671;48.922;2.346;2022-09-09T00:33:50;100753.78;;;18.81;58.77
62600;BME280;48671;48.922;2.346;2022-09-09T00:36:21;100769.03;;;18.89;58.52
62600;BME280;48671;48.922;2.346;2022-09-09T00:38:57;100762.94;;;18.88;58.87
62600;BME280;48671;48.922;2.346;2022-09-09T00:44:30;100766.53;;;18.87;58.88
62600;BME280;48671;48.922;2.346;2022-09-09T00:55:15;100743.13;;;18.70;59.44
62600;BME280;48671;48.922;2.346;2022-09-09T00:57:41;100753.69;;;18.70;59.11
62600;BME280;48671;48.922;2.346;2022-09-09T01:00:20;100747.69;;;18.68;59.26
62600;BME280;48671;48.922;2.346;2022-09-09T01:03:11;100752.34;;;18.64;59.84
62600;BME280;48671;48.922;2.346;2022-09-09T01:05:59;100752.78;;;18.58;60.06
62600;BME280;48671;48.922;2.346;2022-09-09T01:11:01;100761.34;;;18.49;60.19
62600;BME280;48671;48.922;2.346;2022-09-09T01:13:35;100753.56;;;18.47;60.42
62600;BME280;48671;48.922;2.346;2022-09-09T01:16:03;100756.06;;;18.49;60.66
62600;BME280;48671;48.922;2.346;2022-09-09T01:18:35;100747.34;;;18.48;60.56
62600;BME280;48671;48.922;2.346;2022-09-09T01:26:48;100735.34;;;18.32;60.76
62600;BME280;48671;48.922;2.346;2022-09-09T01:29:17;100734.28;;;18.34;60.88
62600;BME280;48671;48.922;2.346;2022-09-09T01:32:00;100739.44;;;18.36;61.00
62600;BME280;48671;48.922;2.346;2022-09-09T01:34:31;100746.41;;;18.37;60.78
62600;BME280;48671;48.922;2.346;2022-09-09T01:37:08;100744.59;;;18.37;60.39
62600;BME280;48671;48.922;2.346;2022-09-09T01:39:37;100747.44;;;18.34;61.45
62600;BME280;48671;48.922;2.346;2022-09-09T01:42:05;100740.63;;;18.32;61.18
62600;BME280;48671;48.922;2.346;2022-09-09T01:44:32;100753.81;;;18.32;61.17
62600;BME280;48671;48.922;2.346;2022-09-09T01:46:57;100743.47;;;18.29;61.15
62600;BME280;48671;48.922;2.346;2022-09-09T01:49:23;100757.56;;;18.28;61.10
62600;BME280;48671;48.922;2.346;2022-09-09T01:51:54;100751.81;;;18.22;61.49
62600;BME280;48671;48.922;2.346;2022-09-09T01:54:23;100745.91;;;18.19;62.21
62600;BME280;48671;48.922;2.346;2022-09-09T01:59:45;100749.16;;;18.22;61.62
62600;BME280;48671;48.922;2.346;2022-09-09T02:02:23;100746.31;;;18.25;61.26
62600;BME280;48671;48.922;2.346;2022-09-09T02:04:57;100737.38;;;18.28;61.33
62600;BME280;48671;48.922;2.346;2022-09-09T02:07:40;100741.69;;;18.29;61.18
62600;BME280;48671;48.922;2.346;2022-09-09T02:10:25;100739.47;;;18.23;62.15
62600;BME280;48671;48.922;2.346;2022-09-09T02:13:01;100729.78;;;18.23;62.17
62600;BME280;48671;48.922;2.346;2022-09-09T02:17:56;100704.50;;;18.08;61.53
62600;BME280;48671;48.922;2.346;2022-09-09T02:20:23;100720.28;;;18.21;61.16
62600;BME280;48671;48.922;2.346;2022-09-09T02:22:50;100721.03;;;18.23;61.66
62600;BME280;48671;48.922;2.346;2022-09-09T02:25:21;100715.16;;;18.19;61.76
62600;BME280;48671;48.922;2.346;2022-09-09T02:27:49;100723.13;;;18.18;61.70
62600;BME280;48671;48.922;2.346;2022-09-09T02:30:16;100719.66;;;18.17;61.82
62600;BME280;48671;48.922;2.346;2022-09-09T02:32:43;100720.09;;;18.11;62.16
62600;BME280;48671;48.922;2.346;2022-09-09T02:35:15;100715.16;;;18.07;62.45
62600;BME280;48671;48.922;2.346;2022-09-09T02:37:42;100715.50;;;18.02;62.41
62600;BME280;48671;48.922;2.346;2022-09-09T02:40:12;100719.59;;;17.93;62.47
62600;BME280;48671;48.922;2.346;2022-09-09T02:42:46;100721.50;;;17.91;62.53
62600;BME280;48671;48.922;2.346;2022-09-09T02:45:15;100715.31;;;17.92;63.14
62600;BME280;48671;48.922;2.346;2022-09-09T02:48:17;100723.06;;;17.94;63.19
62600;BME280;48671;48.922;2.346;2022-09-09T02:50:54;100706.13;;;17.85;62.94
62600;BME280;48671;48.922;2.346;2022-09-09T02:53:34;100697.19;;;17.88;63.01
62600;BME280;48671;48.922;2.346;2022-09-09T02:56:09;100695.38;;;17.88;62.95
62600;BME280;48671;48.922;2.346;2022-09-09T02:58:39;100726.13;;;18.00;62.74
62600;BME280;48671;48.922;2.346;2022-09-09T03:01:05;100712.53;;;17.94;62.63
62600;BME280;48671;48.922;2.346;2022-09-09T03:03:31;100708.22;;;18.06;62.24
62600;BME280;48671;48.922;2.346;2022-09-09T03:05:56;100705.91;;;18.01;62.35
62600;BME280;48671;48.922;2.346;2022-09-09T03:08:22;100705.81;;;18.02;62.81
62600;BME280;48671;48.922;2.346;2022-09-09T03:10:47;100696.31;;;18.00;63.25
62600;BME280;48671;48.922;2.346;2022-09-09T03:13:12;100713.59;;;18.04;62.73
62600;BME280;48671;48.922;2.346;2022-09-09T03:15:40;100708.44;;;18.02;62.87
62600;BME280;48671;48.922;2.346;2022-09-09T03:18:05;100711.16;;;18.01;62.90
62600;BME280;48671;48.922;2.346;2022-09-09T03:20:31;100725.56;;;18.08;62.21
62600;BME280;48671;48.922;2.346;2022-09-09T03:22:57;100721.19;;;18.09;62.12
62600;BME280;48671;48.922;2.346;2022-09-09T03:25:24;100722.53;;;18.01;62.63
62600;BME280;48671;48.922;2.346;2022-09-09T03:27:50;100719.91;;;18.01;62.72
62600;BME280;48671;48.922;2.346;2022-09-09T03:30:19;100720.44;;;17.94;63.15
62600;BME280;48671;48.922;2.346;2022-09-09T03:32:44;100716.44;;;17.88;62.63
62600;BME280;48671;48.922;2.346;2022-09-09T03:35:10;100721.41;;;17.93;62.76
62600;BME280;48671;48.922;2.346;2022-09-09T03:37:35;100704.66;;;17.81;63.07
62600;BME280;48671;48.922;2.346;2022-09-09T03:40:01;100721.50;;;17.91;63.44
62600;BME280;48671;48.922;2.346;2022-09-09T03:42:26;100703.72;;;17.82;62.94
62600;BME280;48671;48.922;2.346;2022-09-09T03:44:52;100707.28;;;17.81;63.41
62600;BME280;48671;48.922;2.346;2022-09-09T03:47:20;100711.63;;;17.82;63.34
62600;BME280;48671;48.922;2.346;2022-09-09T03:49:47;100716.88;;;17.82;62.69
62600;BME280;48671;48.922;2.346;2022-09-09T03:52:13;100714.00;;;17.85;62.72
62600;BME280;48671;48.922;2.346;2022-09-09T03:54:39;100708.75;;;17.85;62.90
62600;BME280;48671;48.922;2.346;2022-09-09T03:57:06;100734.03;;;17.88;63.67
62600;BME280;48671;48.922;2.346;2022-09-09T03:59:31;100732.34;;;17.87;62.95
62600;BME280;48671;48.922;2.346;2022-09-09T04:01:57;100733.53;;;17.83;63.11
62600;BME280;48671;48.922;2.346;2022-09-09T04:04:24;100713.72;;;17.77;63.57
62600;BME280;48671;48.922;2.346;2022-09-09T04:06:49;100727.63;;;17.79;63.40
62600;BME280;48671;48.922;2.346;2022-09-09T04:09:16;100709.59;;;17.73;63.18
62600;BME280;48671;48.922;2.346;2022-09-09T04:11:41;100710.44;;;17.73;63.36
62600;BME280;48671;48.922;2.346;2022-09-09T04:14:07;100714.09;;;17.71;63.12
62600;BME280;48671;48.922;2.346;2022-09-09T04:16:33;100706.13;;;17.72;63.77
62600;BME280;48671;48.922;2.346;2022-09-09T04:18:58;100688.31;;;17.63;63.13
62600;BME280;48671;48.922;2.346;2022-09-09T04:21:25;100701.28;;;17.66;63.73
62600;BME280;48671;48.922;2.346;2022-09-09T04:23:50;100709.59;;;17.73;63.33
62600;BME280;48671;48.922;2.346;2022-09-09T04:26:16;100713.28;;;17.70;63.60
62600;BME280;48671;48.922;2.346;2022-09-09T04:28:42;100708.09;;;17.69;63.89
62600;BME280;48671;48.922;2.346;2022-09-09T04:31:11;100719.38;;;17.71;63.27
62600;BME280;48671;48.922;2.346;2022-09-09T04:33:39;100706.53;;;17.66;63.36
62600;BME280;48671;48.922;2.346;2022-09-09T04:36:05;100717.78;;;17.68;63.61
62600;BME280;48671;48.922;2.346;2022-09-09T04:38:31;100701.28;;;17.53;64.53
62600;BME280;48671;48.922;2.346;2022-09-09T04:40:56;100689.16;;;17.51;64.06
62600;BME280;48671;48.922;2.346;2022-09-09T04:43:22;100708.41;;;17.64;64.09
62600;BME280;48671;48.922;2.346;2022-09-09T04:45:49;100695.06;;;17.54;63.57
62600;BME280;48671;48.922;2.346;2022-09-09T04:48:16;100697.81;;;17.53;63.95
62600;BME280;48671;48.922;2.346;2022-09-09T04:50:41;100713.47;;;17.67;64.14
62600;BME280;48671;48.922;2.346;2022-09-09T04:53:07;100731.25;;;17.64;64.03
62600;BME280;48671;48.922;2.346;2022-09-09T04:55:33;100724.22;;;17.64;63.94
62600;BME280;48671;48.922;2.346;2022-09-09T04:58:07;100719.16;;;17.61;64.59
62600;BME280;48671;48.922;2.346;2022-09-09T05:00:34;100721.91;;;17.60;64.48
62600;BME280;48671;48.922;2.346;2022-09-09T05:03:04;100715.34;;;17.52;64.42
62600;BME280;48671;48.922;2.346;2022-09-09T05:05:31;100720.19;;;17.59;64.14
62600;BME280;48671;48.922;2.346;2022-09-09T05:08:07;100724.81;;;17.55;64.71
62600;BME280;48671;48.922;2.346;2022-09-09T05:10:38;100729.25;;;17.54;64.36
62600;BME280;48671;48.922;2.346;2022-09-09T05:13:05;100734.44;;;17.56;64.37
62600;BME280;48671;48.922;2.346;2022-09-09T05:15:31;100728.63;;;17.51;64.20
62600;BME280;48671;48.922;2.346;2022-09-09T05:18:00;100720.59;;;17.52;64.07
62600;BME280;48671;48.922;2.346;2022-09-09T05:20:27;100737.16;;;17.54;63.96
62600;BME280;48671;48.922;2.346;2022-09-09T05:22:53;100738.94;;;17.54;64.04
62600;BME280;48671;48.922;2.346;2022-09-09T05:25:19;100748.63;;;17.53;64.17
62600;BME280;48671;48.922;2.346;2022-09-09T05:27:44;100741.16;;;17.60;64.17
62600;BME280;48671;48.922;2.346;2022-09-09T05:30:10;100741.25;;;17.59;63.98
62600;BME280;48671;48.922;2.346;2022-09-09T05:32:35;100737.16;;;17.54;64.61
62600;BME280;48671;48.922;2.346;2022-09-09T05:35:01;100732.00;;;17.53;64.31
62600;BME280;48671;48.922;2.346;2022-09-09T05:37:27;100744.00;;;17.57;64.09
62600;BME280;48671;48.922;2.346;2022-09-09T05:39:52;100746.50;;;17.59;63.97
62600;BME280;48671;48.922;2.346;2022-09-09T05:42:18;100726.09;;;17.49;64.19
62600;BME280;48671;48.922;2.346;2022-09-09T05:44:43;100724.31;;;17.50;64.26
62600;BME280;48671;48.922;2.346;2022-09-09T05:47:10;100735.16;;;17.58;64.66
62600;BME280;48671;48.922;2.346;2022-09-09T05:49:35;100744.28;;;17.65;64.28
62600;BME280;48671;48.922;2.346;2022-09-09T05:52:01;100688.63;;;17.33;64.66
62600;BME280;48671;48.922;2.346;2022-09-09T05:54:29;100735.06;;;17.60;64.64
62600;BME280;48671;48.922;2.346;2022-09-09T05:56:54;100721.34;;;17.54;64.43
62600;BME280;48671;48.922;2.346;2022-09-09T05:59:19;100731.47;;;17.61;64.52
62600;BME280;48671;48.922;2.346;2022-09-09T06:01:45;100727.78;;;17.63;64.35
62600;BME280;48671;48.922;2.346;2022-09-09T06:04:11;100741.47;;;17.68;64.21
62600;BME280;48671;48.922;2.346;2022-09-09T06:06:37;100735.16;;;17.71;64.51
62600;BME280;48671;48.922;2.346;2022-09-09T06:09:05;100746.88;;;17.80;63.83
62600;BME280;48671;48.922;2.346;2022-09-09T06:11:34;100729.81;;;17.72;64.69
62600;BME280;48671;48.922;2.346;2022-09-09T06:14:01;100740.03;;;17.77;64.30
62600;BME280;48671;48.922;2.346;2022-09-09T06:16:27;100745.84;;;17.82;64.56
62600;BME280;48671;48.922;2.346;2022-09-09T06:18:54;100751.09;;;17.82;64.66
62600;BME280;48671;48.922;2.346;2022-09-09T06:21:23;100740.88;;;17.77;64.68
62600;BME280;48671;48.922;2.346;2022-09-09T06:23:49;100751.31;;;17.79;64.63
62600;BME280;48671;48.922;2.346;2022-09-09T06:26:27;100747.81;;;17.78;64.54
62600;BME280;48671;48.922;2.346;2022-09-09T06:28:54;100746.75;;;17.81;64.73
62600;BME280;48671;48.922;2.346;2022-09-09T06:31:28;100742.97;;;17.85;64.44
62600;BME280;48671;48.922;2.346;2022-09-09T06:33:59;100750.88;;;17.85;64.50
62600;BME280;48671;48.922;2.346;2022-09-09T06:36:29;100746.03;;;17.79;64.20
62600;BME280;48671;48.922;2.346;2022-09-09T06:38:56;100734.81;;;17.75;64.05
62600;BME280;48671;48.922;2.346;2022-09-09T06:41:24;100737.69;;;17.85;64.70
62600;BME280;48671;48.922;2.346;2022-09-09T06:43:51;100738.25;;;17.90;64.29
62600;BME280;48671;48.922;2.346;2022-09-09T06:46:18;100748.03;;;17.88;63.78
62600;BME280;48671;48.922;2.346;2022-09-09T06:48:45;100749.53;;;17.92;64.23
62600;BME280;48671;48.922;2.346;2022-09-09T06:53:39;100745.59;;;17.98;64.84
62600;BME280;48671;48.922;2.346;2022-09-09T06:58:40;100741.91;;;18.00;63.66
62600;BME280;48671;48.922;2.346;2022-09-09T07:01:10;100752.25;;;18.04;63.92
62600;BME280;48671;48.922;2.346;2022-09-09T07:03:37;100745.31;;;18.02;63.80
62600;BME280;48671;48.922;2.346;2022-09-09T07:06:04;100737.41;;;18.02;63.28
62600;BME280;48671;48.922;2.346;2022-09-09T07:08:30;100755.81;;;18.15;63.50
62600;BME280;48671;48.922;2.346;2022-09-09T07:11:03;100766.97;;;18.19;63.05
62600;BME280;48671;48.922;2.346;2022-09-09T07:13:30;100750.34;;;18.18;63.68
62600;BME280;48671;48.922;2.346;2022-09-09T07:16:12;100755.59;;;18.18;63.14
62600;BME280;48671;48.922;2.346;2022-09-09T07:18:39;100763.59;;;18.17;63.41
62600;BME280;48671;48.922;2.346;2022-09-09T07:21:05;100751.81;;;18.10;62.97
62600;BME280;48671;48.922;2.346;2022-09-09T07:23:31;100760.97;;;18.17;63.14
62600;BME280;48671;48.922;2.346;2022-09-09T07:25:57;100770.53;;;18.18;63.38
62600;BME280;48671;48.922;2.346;2022-09-09T07:28:23;100746.75;;;18.07;63.27
62600;BME280;48671;48.922;2.346;2022-09-09T07:30:59;100775.38;;;18.24;62.89
62600;BME280;48671;48.922;2.346;2022-09-09T07:33:28;100753.28;;;18.14;62.46
62600;BME280;48671;48.922;2.346;2022-09-09T07:36:07;100781.06;;;18.31;62.32
62600;BME280;48671;48.922;2.346;2022-09-09T07:38:45;100781.81;;;18.33;62.27
62600;BME280;48671;48.922;2.346;2022-09-09T07:41:15;100773.47;;;18.39;62.17
62600;BME280;48671;48.922;2.346;2022-09-09T07:43:43;100786.75;;;18.37;62.32
62600;BME280;48671;48.922;2.346;2022-09-09T07:46:09;100780.56;;;18.38;62.32
62600;BME280;48671;48.922;2.346;2022-09-09T07:48:35;100764.75;;;18.25;62.51
62600;BME280;48671;48.922;2.346;2022-09-09T07:51:06;100784.97;;;18.38;62.64
62600;BME280;48671;48.922;2.346;2022-09-09T07:53:32;100787.38;;;18.41;62.09
62600;BME280;48671;48.922;2.346;2022-09-09T07:56:06;100771.34;;;18.44;62.29
62600;BME280;48671;48.922;2.346;2022-09-09T07:58:32;100780.75;;;18.48;62.19
62600;BME280;48671;48.922;2.346;2022-09-09T08:00:58;100765.88;;;18.47;62.25
62600;BME280;48671;48.922;2.346;2022-09-09T08:03:23;100790.28;;;18.62;61.81
62600;BME280;48671;48.922;2.346;2022-09-09T08:05:49;100786.41;;;18.55;62.08
62600;BME280;48671;48.922;2.346;2022-09-09T08:08:14;100790.38;;;18.60;61.65
62600;BME280;48671;48.922;2.346;2022-09-09T08:10:41;100793.91;;;18.61;61.49
62600;BME280;48671;48.922;2.346;2022-09-09T08:13:06;100803.88;;;18.68;61.68
62600;BME280;48671;48.922;2.346;2022-09-09T08:15:33;100795.22;;;18.66;61.88
62600;BME280;48671;48.922;2.346;2022-09-09T08:17:59;100801.03;;;18.71;61.27
62600;BME280;48671;48.922;2.346;2022-09-09T08:20:24;100806.00;;;18.76;61.13
62600;BME280;48671;48.922;2.346;2022-09-09T08:22:50;100799.13;;;18.74;61.24
62600;BME280;48671;48.922;2.346;2022-09-09T08:25:15;100797.78;;;18.81;61.37
62600;BME280;48671;48.922;2.346;2022-09-09T08:27:53;100804.28;;;18.88;61.30
62600;BME280;48671;48.922;2.346;2022-09-09T08:30:23;100792.47;;;18.93;60.65
62600;BME280;48671;48.922;2.346;2022-09-09T08:33:13;100800.19;;;19.08;60.21
62600;BME280;48671;48.922;2.346;2022-09-09T08:36:04;100799.00;;;19.12;59.66
62600;BME280;48671;48.922;2.346;2022-09-09T08:38:30;100810.34;;;19.25;59.46
62600;BME280;48671;48.922;2.346;2022-09-09T08:41:07;100800.47;;;19.40;58.95
62600;BME280;48671;48.922;2.346;2022-09-09T08:43:36;100813.56;;;19.77;58.35
62600;BME280;48671;48.922;2.346;2022-09-09T08:46:12;100821.75;;;19.85;57.89
62600;BME280;48671;48.922;2.346;2022-09-09T08:54:08;100811.28;;;19.72;57.45
62600;BME280;48671;48.922;2.346;2022-09-09T08:56:36;100812.69;;;19.65;57.53
62600;BME280;48671;48.922;2.346;2022-09-09T08:59:02;100801.19;;;19.66;57.42
62600;BME280;48671;48.922;2.346;2022-09-09T09:01:41;100812.22;;;19.71;57.78
62600;BME280;48671;48.922;2.346;2022-09-09T09:07:25;100842.00;;;19.84;57.17
62600;BME280;48671;48.922;2.346;2022-09-09T09:12:36;100839.50;;;19.94;57.02
62600;BME280;48671;48.922;2.346;2022-09-09T09:15:14;100828.84;;;19.96;56.82
62600;BME280;48671;48.922;2.346;2022-09-09T09:17:42;100841.22;;;20.06;56.87
62600;BME280;48671;48.922;2.346;2022-09-09T09:20:13;100817.31;;;19.97;56.76
62600;BME280;48671;48.922;2.346;2022-09-09T09:25:18;100850.34;;;20.14;56.26
62600;BME280;48671;48.922;2.346;2022-09-09T09:30:29;100828.00;;;19.95;56.65
62600;BME280;48671;48.922;2.346;2022-09-09T09:33:08;100856.84;;;20.09;56.49
62600;BME280;48671;48.922;2.346;2022-09-09T09:35:36;100846.88;;;20.02;56.44
62600;BME280;48671;48.922;2.346;2022-09-09T09:38:14;100853.59;;;20.06;56.52
62600;BME280;48671;48.922;2.346;2022-09-09T09:40:52;100855.06;;;20.21;56.03
62600;BME280;48671;48.922;2.346;2022-09-09T09:43:24;100867.69;;;20.18;56.06
62600;BME280;48671;48.922;2.346;2022-09-09T09:45:51;100854.72;;;20.15;56.45
62600;BME280;48671;48.922;2.346;2022-09-09T09:48:16;100863.97;;;20.31;55.39
62600;BME280;48671;48.922;2.346;2022-09-09T09:50:53;100866.50;;;20.44;55.68
62600;BME280;48671;48.922;2.346;2022-09-09T09:53:39;100863.88;;;20.44;55.52
62600;BME280;48671;48.922;2.346;2022-09-09T09:56:08;100865.41;;;20.47;55.57
62600;BME280;48671;48.922;2.346;2022-09-09T09:58:54;100867.13;;;20.59;55.73
62600;BME280;48671;48.922;2.346;2022-09-09T10:01:20;100873.50;;;20.68;54.83
62600;BME280;48671;48.922;2.346;2022-09-09T10:03:52;100870.13;;;20.66;55.34
62600;BME280;48671;48.922;2.346;2022-09-09T10:06:29;100878.78;;;20.68;55.26
62600;BME280;48671;48.922;2.346;2022-09-09T10:08:55;100881.91;;;20.62;55.08
62600;BME280;48671;48.922;2.346;2022-09-09T10:14:22;100894.16;;;20.51;56.57
62600;BME280;48671;48.922;2.346;2022-09-09T10:17:15;100890.06;;;20.47;55.75
62600;BME280;48671;48.922;2.346;2022-09-09T10:22:33;100880.56;;;20.45;55.08
62600;BME280;48671;48.922;2.346;2022-09-09T10:30:25;100885.50;;;20.72;54.47
62600;BME280;48671;48.922;2.346;2022-09-09T10:33:21;100882.16;;;20.81;54.31
62600;BME280;48671;48.922;2.346;2022-09-09T10:38:48;100873.00;;;20.85;53.53
62600;BME280;48671;48.922;2.346;2022-09-09T10:54:57;100891.78;;;20.93;53.58
62600;BME280;48671;48.922;2.346;2022-09-09T10:57:44;100879.25;;;20.95;54.14
62600;BME280;48671;48.922;2.346;2022-09-09T11:00:50;100881.66;;;20.98;53.62
62600;BME280;48671;48.922;2.346;2022-09-09T11:03:19;100879.47;;;20.92;53.79
62600;BME280;48671;48.922;2.346;2022-09-09T11:06:04;100865.44;;;20.80;53.17
62600;BME280;48671;48.922;2.346;2022-09-09T11:08:32;100882.88;;;20.83;53.56
62600;BME280;48671;48.922;2.346;2022-09-09T11:16:29;100890.53;;;20.86;55.35
62600;BME280;48671;48.922;2.346;2022-09-09T11:19:00;100882.63;;;20.86;54.44
62600;BME280;48671;48.922;2.346;2022-09-09T11:21:36;100878.41;;;20.95;54.60
62600;BME280;48671;48.922;2.346;2022-09-09T11:24:09;100879.97;;;20.97;54.55
62600;BME280;48671;48.922;2.346;2022-09-09T11:26:43;100877.44;;;21.07;54.56
62600;BME280;48671;48.922;2.346;2022-09-09T11:29:32;100877.03;;;21.12;54.27
62600;BME280;48671;48.922;2.346;2022-09-09T11:34:56;100843.66;;;20.99;53.08
62600;BME280;48671;48.922;2.346;2022-09-09T11:40:20;100874.75;;;21.18;52.36
62600;BME280;48671;48.922;2.346;2022-09-09T11:42:47;100900.63;;;21.15;52.77
62600;BME280;48671;48.922;2.346;2022-09-09T11:45:23;100893.31;;;21.07;52.86
62600;BME280;48671;48.922;2.346;2022-09-09T11:47:57;100880.09;;;20.85;52.68
62600;BME280;48671;48.922;2.346;2022-09-09T11:52:48;100884.56;;;20.84;53.13
62600;BME280;48671;48.922;2.346;2022-09-09T11:55:26;100893.91;;;20.88;53.34
62600;BME280;48671;48.922;2.346;2022-09-09T11:57:58;100903.78;;;20.86;53.21
62600;BME280;48671;48.922;2.346;2022-09-09T12:03:03;100907.88;;;20.79;53.71
62600;BME280;48671;48.922;2.346;2022-09-09T12:05:41;100909.94;;;20.87;53.89
62600;BME280;48671;48.922;2.346;2022-09-09T12:08:09;100913.88;;;20.92;53.70
62600;BME280;48671;48.922;2.346;2022-09-09T12:10:39;100912.44;;;20.88;53.67
62600;BME280;48671;48.922;2.346;2022-09-09T12:13:19;100902.56;;;20.79;54.07
62600;BME280;48671;48.922;2.346;2022-09-09T12:15:52;100925.19;;;20.94;54.42
62600;BME280;48671;48.922;2.346;2022-09-09T12:18:39;100920.38;;;20.88;56.10
62600;BME280;48671;48.922;2.346;2022-09-09T12:23:58;100922.19;;;20.76;55.98
62600;BME280;48671;48.922;2.346;2022-09-09T12:26:41;100925.19;;;20.72;56.12
62600;BME280;48671;48.922;2.346;2022-09-09T12:34:32;100915.53;;;20.48;57.74
62600;BME280;48671;48.922;2.346;2022-09-09T12:37:03;100921.78;;;20.47;57.92
62600;BME280;48671;48.922;2.346;2022-09-09T12:39:34;100936.34;;;20.53;58.75
62600;BME280;48671;48.922;2.346;2022-09-09T12:42:01;100940.06;;;20.62;57.93
62600;BME280;48671;48.922;2.346;2022-09-09T12:44:29;100905.91;;;20.47;58.32
62600;BME280;48671;48.922;2.346;2022-09-09T12:46:58;100933.22;;;20.59;58.61
62600;BME280;48671;48.922;2.346;2022-09-09T12:49:34;100942.22;;;20.56;59.04
62600;BME280;48671;48.922;2.346;2022-09-09T12:52:08;100925.59;;;20.32;58.75
62600;BME280;48671;48.922;2.346;2022-09-09T12:54:44;100949.75;;;20.39;59.79
62600;BME280;48671;48.922;2.346;2022-09-09T12:57:12;100956.56;;;20.30;60.53
62600;BME280;48671;48.922;2.346;2022-09-09T12:59:40;100958.72;;;20.25;60.43
62600;BME280;48671;48.922;2.346;2022-09-09T13:02:26;100959.78;;;20.22;61.22
62600;BME280;48671;48.922;2.346;2022-09-09T13:04:53;100962.44;;;20.22;60.43
62600;BME280;48671;48.922;2.346;2022-09-09T13:07:20;100950.91;;;20.23;61.30
62600;BME280;48671;48.922;2.346;2022-09-09T13:09:49;100956.56;;;20.30;61.26
62600;BME280;48671;48.922;2.346;2022-09-09T13:12:24;100932.75;;;20.19;61.04
62600;BME280;48671;48.922;2.346;2022-09-09T13:14:52;100955.34;;;20.23;61.61
62600;BME280;48671;48.922;2.346;2022-09-09T13:17:26;100953.66;;;20.22;61.76
62600;BME280;48671;48.922;2.346;2022-09-09T13:19:54;100959.06;;;20.20;61.87
62600;BME280;48671;48.922;2.346;2022-09-09T13:22:31;100970.72;;;20.18;62.00
62600;BME280;48671;48.922;2.346;2022-09-09T13:27:38;100981.03;;;20.21;61.78
62600;BME280;48671;48.922;2.346;2022-09-09T13:30:40;100980.78;;;20.24;61.91
62600;BME280;48671;48.922;2.346;2022-09-09T13:38:16;100976.91;;;20.05;62.61
62600;BME280;48671;48.922;2.346;2022-09-09T13:43:43;100989.59;;;20.00;63.24
62600;BME280;48671;48.922;2.346;2022-09-09T13:46:37;100990.66;;;19.98;62.90
62600;BME280;48671;48.922;2.346;2022-09-09T13:51:46;100978.03;;;19.90;63.40
62600;BME280;48671;48.922;2.346;2022-09-09T13:54:14;100966.34;;;19.81;63.34
62600;BME280;48671;48.922;2.346;2022-09-09T13:56:40;100958.34;;;19.94;62.81
62600;BME280;48671;48.922;2.346;2022-09-09T13:59:11;100966.81;;;20.10;62.84
62600;BME280;48671;48.922;2.346;2022-09-09T14:01:36;100947.53;;;20.21;62.67
62600;BME280;48671;48.922;2.346;2022-09-09T14:04:02;100937.22;;;20.29;61.41
62600;BME280;48671;48.922;2.346;2022-09-09T14:06:28;100959.47;;;20.49;61.35
62600;BME280;48671;48.922;2.346;2022-09-09T14:08:54;100949.06;;;20.59;60.80
62600;BME280;48671;48.922;2.346;2022-09-09T14:11:20;100950.66;;;20.62;60.51
62600;BME280;48671;48.922;2.346;2022-09-09T14:13:47;100963.03;;;20.61;60.04
62600;BME280;48671;48.922;2.346;2022-09-09T14:16:15;100957.28;;;20.67;60.59
62600;BME280;48671;48.922;2.346;2022-09-09T14:18:40;100938.88;;;20.66;60.42
62600;BME280;48671;48.922;2.346;2022-09-09T14:21:06;100952.38;;;20.96;60.49
62600;BME280;48671;48.922;2.346;2022-09-09T14:23:31;100956.31;;;21.36;59.44
62600;BME280;48671;48.922;2.346;2022-09-09T14:25:57;100954.13;;;21.52;58.43
62600;BME280;48671;48.922;2.346;2022-09-09T14:28:22;100945.88;;;21.66;56.34
62600;BME280;48671;48.922;2.346;2022-09-09T14:30:48;100955.00;;;21.73;56.68
62600;BME280;48671;48.922;2.346;2022-09-09T14:33:15;100934.56;;;21.64;55.78
62600;BME280;48671;48.922;2.346;2022-09-09T14:35:41;100946.38;;;21.60;56.01
62600;BME280;48671;48.922;2.346;2022-09-09T14:38:08;100952.41;;;21.51;56.67
62600;BME280;48671;48.922;2.346;2022-09-09T14:40:35;100945.84;;;21.45;57.11
62600;BME280;48671;48.922;2.346;2022-09-09T14:43:01;100911.56;;;21.21;56.95
62600;BME280;48671;48.922;2.346;2022-09-09T14:45:27;100898.56;;;21.18;56.47
62600;BME280;48671;48.922;2.346;2022-09-09T14:47:52;100894.34;;;21.27;57.07
62600;BME280;48671;48.922;2.346;2022-09-09T14:50:19;100955.94;;;21.84;56.17
62600;BME280;48671;48.922;2.346;2022-09-09T14:52:44;100965.00;;;22.02;55.60
62600;BME280;48671;48.922;2.346;2022-09-09T14:55:09;100946.47;;;22.02;54.73
62600;BME280;48671;48.922;2.346;2022-09-09T14:57:36;100911.72;;;21.84;55.07
62600;BME280;48671;48.922;2.346;2022-09-09T15:00:03;100959.72;;;22.02;54.95
62600;BME280;48671;48.922;2.346;2022-09-09T15:02:29;100944.16;;;21.77;54.62
62600;BME280;48671;48.922;2.346;2022-09-09T15:04:55;100956.63;;;21.65;55.38